sensor_id;sensor_type;location;lat;lon;timestamp;pressure;altitude;pressure_sealevel;temperature;humidity
42945;BME280;28584;42.636;23.294;2023-03-20T00:00:32;159863.03;;;4.91;100.00
42945;BME280;28584;42.636;23.294;2023-03-20T00:02:58;159815.19;;;4.73;100.00
42945;BME280;28584;42.636;23.294;2023-03-20T00:05:25;159849.72;;;4.86;100.00
42945;BME280;28584;42.636;23.294;2023-03-20T00:07:52;159853.69;;;4.88;100.00
42945;BME280;28584;42.636;23.294;2023-03-20T00:10:18;159855.03;;;4.88;100.00
42945;BME280;28584;42.636;23.294;2023-03-20T00:12:45;159843.06;;;4.84;100.00
42945;BME280;28584;42.636;23.294;2023-03-20T00:17:46;159921.53;;;5.13;100.00
42945;BME280;28584;42.636;23.294;2023-03-20T00:20:15;159877.66;;;4.97;100.00
42945;BME280;28584;42.636;23.294;2023-03-20T00:22:41;159868.31;;;4.93;100.00
42945;BME280;28584;42.636;23.294;2023-03-20T00:25:11;159852.41;;;4.87;100.00
42945;BME280;28584;42.636;23.294;2023-03-20T00:27:37;159857.69;;;4.89;100.00
42945;BME280;28584;42.636;23.294;2023-03-20T00:30:12;159877.66;;;4.97;100.00
42945;BME280;28584;42.636;23.294;2023-03-20T00:32:40;159922.88;;;5.14;100.00
42945;BME280;28584;42.636;23.294;2023-03-20T00:35:26;159972.09;;;5.32;100.00
42945;BME280;28584;42.636;23.294;2023-03-20T00:37:52;159976.09;;;5.34;100.00
42945;BME280;28584;42.636;23.294;2023-03-20T00:40:18;159966.78;;;5.30;100.00
42945;BME280;28584;42.636;23.294;2023-03-20T00:42:46;159948.16;;;5.23;100.00
42945;BME280;28584;42.636;23.294;2023-03-20T00:45:16;159912.25;;;5.10;100.00
42945;BME280;28584;42.636;23.294;2023-03-20T00:47:43;159865.69;;;4.92;100.00
42945;BME280;28584;42.636;23.294;2023-03-20T00:50:20;159820.47;;;4.75;100.00
42945;BME280;28584;42.636;23.294;2023-03-20T00:52:49;159754.00;;;4.50;100.00
42945;BME280;28584;42.636;23.294;2023-03-20T00:55:15;159730.03;;;4.41;100.00
42945;BME280;28584;42.636;23.294;2023-03-20T00:57:59;159731.41;;;4.42;100.00
42945;BME280;28584;42.636;23.294;2023-03-20T01:00:38;159755.34;;;4.51;100.00
42945;BME280;28584;42.636;23.294;2023-03-20T01:03:19;159775.25;;;4.58;100.00
42945;BME280;28584;42.636;23.294;2023-03-20T01:05:45;159768.63;;;4.56;100.00
42945;BME280;28584;42.636;23.294;2023-03-20T01:08:22;159751.34;;;4.49;100.00
42945;BME280;28584;42.636;23.294;2023-03-20T01:10:51;159754.00;;;4.50;100.00
42945;BME280;28584;42.636;23.294;2023-03-20T01:13:26;159761.97;;;4.53;100.00
42945;BME280;28584;42.636;23.294;2023-03-20T01:15:54;159722.06;;;4.38;100.00
42945;BME280;28584;42.636;23.294;2023-03-20T01:18:21;159672.94;;;4.20;100.00
42945;BME280;28584;42.636;23.294;2023-03-20T01:20:48;159606.44;;;3.95;100.00
42945;BME280;28584;42.636;23.294;2023-03-20T01:23:14;159586.53;;;3.87;100.00
42945;BME280;28584;42.636;23.294;2023-03-20T01:25:40;159598.50;;;3.92;100.00
42945;BME280;28584;42.636;23.294;2023-03-20T01:28:21;159626.38;;;4.02;100.00
42945;BME280;28584;42.636;23.294;2023-03-20T01:30:47;159650.31;;;4.11;100.00
42945;BME280;28584;42.636;23.294;2023-03-20T01:33:18;159682.19;;;4.23;100.00
42945;BME280;28584;42.636;23.294;2023-03-20T01:35:44;159708.78;;;4.33;100.00
42945;BME280;28584;42.636;23.294;2023-03-20T01:38:22;159710.13;;;4.34;100.00
42945;BME280;28584;42.636;23.294;2023-03-20T01:40:58;159690.19;;;4.26;100.00
42945;BME280;28584;42.636;23.294;2023-03-20T01:43:26;159650.31;;;4.11;100.00
42945;BME280;28584;42.636;23.294;2023-03-20T01:48:59;159613.13;;;3.97;100.00
42945;BME280;28584;42.636;23.294;2023-03-20T01:51:27;159618.41;;;3.99;100.00
42945;BME280;28584;42.636;23.294;2023-03-20T01:56:21;159656.97;;;4.14;100.00
42945;BME280;28584;42.636;23.294;2023-03-20T01:58:51;159682.19;;;4.23;100.00
42945;BME280;28584;42.636;23.294;2023-03-20T02:01:18;159702.16;;;4.31;100.00
42945;BME280;28584;42.636;23.294;2023-03-20T02:03:47;159680.84;;;4.23;100.00
42945;BME280;28584;42.636;23.294;2023-03-20T02:06:13;159652.97;;;4.12;100.00
42945;BME280;28584;42.636;23.294;2023-03-20T02:08:43;159645.00;;;4.09;100.00
42945;BME280;28584;42.636;23.294;2023-03-20T02:11:10;159639.69;;;4.07;100.00
42945;BME280;28584;42.636;23.294;2023-03-20T02:13:37;159615.75;;;3.98;100.00
42945;BME280;28584;42.636;23.294;2023-03-20T02:16:06;159565.25;;;3.79;100.00
42945;BME280;28584;42.636;23.294;2023-03-20T02:18:32;159522.75;;;3.63;100.00
42945;BME280;28584;42.636;23.294;2023-03-20T02:24:08;159459.00;;;3.39;100.00
42945;BME280;28584;42.636;23.294;2023-03-20T02:40:07;159476.25;;;3.46;100.00
42945;BME280;28584;42.636;23.294;2023-03-20T02:50:16;159400.53;;;3.17;100.00
42945;BME280;28584;42.636;23.294;2023-03-20T02:52:50;159363.34;;;3.03;100.00
42945;BME280;28584;42.636;23.294;2023-03-20T02:55:56;159328.88;;;2.90;100.00
42945;BME280;28584;42.636;23.294;2023-03-20T02:58:36;159371.31;;;3.06;100.00
42945;BME280;28584;42.636;23.294;2023-03-20T03:01:08;159437.75;;;3.31;100.00
42945;BME280;28584;42.636;23.294;2023-03-20T03:04:07;159429.78;;;3.28;100.00
42945;BME280;28584;42.636;23.294;2023-03-20T03:06:39;159391.25;;;3.14;100.00
42945;BME280;28584;42.636;23.294;2023-03-20T03:09:28;159376.66;;;3.08;100.00
42945;BME280;28584;42.636;23.294;2023-03-20T03:11:59;159368.69;;;3.05;100.00
42945;BME280;28584;42.636;23.294;2023-03-20T03:14:34;159339.47;;;2.94;100.00
42945;BME280;28584;42.636;23.294;2023-03-20T03:17:03;159293.00;;;2.76;100.00
42945;BME280;28584;42.636;23.294;2023-03-20T03:19:31;159265.16;;;2.66;100.00
42945;BME280;28584;42.636;23.294;2023-03-20T03:21:58;159220.00;;;2.49;100.00
42945;BME280;28584;42.636;23.294;2023-03-20T03:24:29;159226.63;;;2.51;100.00
42945;BME280;28584;42.636;23.294;2023-03-20T03:26:58;159230.63;;;2.53;100.00
42945;BME280;28584;42.636;23.294;2023-03-20T03:29:28;159243.88;;;2.58;100.00
42945;BME280;28584;42.636;23.294;2023-03-20T03:31:54;159254.53;;;2.62;100.00
42945;BME280;28584;42.636;23.294;2023-03-20T03:34:20;159257.16;;;2.63;100.00
42945;BME280;28584;42.636;23.294;2023-03-20T03:42:18;159221.31;;;2.49;100.00
42945;BME280;28584;42.636;23.294;2023-03-20T03:44:58;159197.44;;;2.40;100.00
42945;BME280;28584;42.636;23.294;2023-03-20T03:47:48;159251.84;;;2.61;100.00
42945;BME280;28584;42.636;23.294;2023-03-20T03:50:20;159339.47;;;2.94;100.00
42945;BME280;28584;42.636;23.294;2023-03-20T03:52:48;159399.22;;;3.17;100.00
42945;BME280;28584;42.636;23.294;2023-03-20T03:55:22;159416.47;;;3.23;100.00
42945;BME280;28584;42.636;23.294;2023-03-20T03:57:56;159395.25;;;3.15;100.00
42945;BME280;28584;42.636;23.294;2023-03-20T04:00:24;159364.69;;;3.04;100.00
42945;BME280;28584;42.636;23.294;2023-03-20T04:02:55;159387.28;;;3.12;100.00
42945;BME280;28584;42.636;23.294;2023-03-20T04:05:21;159364.69;;;3.04;100.00
42945;BME280;28584;42.636;23.294;2023-03-20T04:07:53;159352.72;;;2.99;100.00
42945;BME280;28584;42.636;23.294;2023-03-20T04:10:19;159323.53;;;2.88;100.00
42945;BME280;28584;42.636;23.294;2023-03-20T04:12:45;159293.00;;;2.76;100.00
42945;BME280;28584;42.636;23.294;2023-03-20T04:15:12;159322.19;;;2.87;100.00
42945;BME280;28584;42.636;23.294;2023-03-20T04:17:38;159326.19;;;2.89;100.00
42945;BME280;28584;42.636;23.294;2023-03-20T04:20:04;159318.25;;;2.86;100.00
42945;BME280;28584;42.636;23.294;2023-03-20T04:22:29;159330.16;;;2.90;100.00
42945;BME280;28584;42.636;23.294;2023-03-20T04:24:55;159334.16;;;2.92;100.00
42945;BME280;28584;42.636;23.294;2023-03-20T04:27:20;159368.69;;;3.05;100.00
42945;BME280;28584;42.636;23.294;2023-03-20T04:29:46;159370.03;;;3.06;100.00
42945;BME280;28584;42.636;23.294;2023-03-20T04:32:12;159412.50;;;3.22;100.00
42945;BME280;28584;42.636;23.294;2023-03-20T04:34:37;159427.09;;;3.27;100.00
42945;BME280;28584;42.636;23.294;2023-03-20T04:37:03;159437.75;;;3.31;100.00
42945;BME280;28584;42.636;23.294;2023-03-20T04:39:29;159452.38;;;3.37;100.00
42945;BME280;28584;42.636;23.294;2023-03-20T04:41:54;159509.44;;;3.58;100.00
42945;BME280;28584;42.636;23.294;2023-03-20T04:44:20;159534.72;;;3.68;100.00
42945;BME280;28584;42.636;23.294;2023-03-20T04:46:45;159562.59;;;3.78;100.00
42945;BME280;28584;42.636;23.294;2023-03-20T04:49:11;159589.19;;;3.88;100.00
42945;BME280;28584;42.636;23.294;2023-03-20T04:51:36;159642.34;;;4.08;100.00
42945;BME280;28584;42.636;23.294;2023-03-20T04:54:01;159695.53;;;4.28;100.00
42945;BME280;28584;42.636;23.294;2023-03-20T04:56:27;159726.06;;;4.40;100.00
42945;BME280;28584;42.636;23.294;2023-03-20T04:58:52;159756.63;;;4.51;100.00
42945;BME280;28584;42.636;23.294;2023-03-20T05:01:17;159783.22;;;4.61;100.00
42945;BME280;28584;42.636;23.294;2023-03-20T05:03:43;159804.50;;;4.69;100.00
42945;BME280;28584;42.636;23.294;2023-03-20T05:06:08;159821.81;;;4.76;100.00
42945;BME280;28584;42.636;23.294;2023-03-20T05:08:33;159840.44;;;4.83;100.00
42945;BME280;28584;42.636;23.294;2023-03-20T05:10:59;159853.69;;;4.88;100.00
42945;BME280;28584;42.636;23.294;2023-03-20T05:13:24;159881.66;;;4.98;100.00
42945;BME280;28584;42.636;23.294;2023-03-20T05:15:50;159925.53;;;5.15;100.00
42945;BME280;28584;42.636;23.294;2023-03-20T05:18:15;159926.88;;;5.15;100.00
42945;BME280;28584;42.636;23.294;2023-03-20T05:20:40;159925.53;;;5.15;100.00
42945;BME280;28584;42.636;23.294;2023-03-20T05:23:06;159933.53;;;5.18;100.00
42945;BME280;28584;42.636;23.294;2023-03-20T05:25:31;159926.88;;;5.15;100.00
42945;BME280;28584;42.636;23.294;2023-03-20T05:27:56;159950.78;;;5.24;100.00
42945;BME280;28584;42.636;23.294;2023-03-20T05:30:22;159962.78;;;5.29;100.00
42945;BME280;28584;42.636;23.294;2023-03-20T05:32:51;159982.75;;;5.36;100.00
42945;BME280;28584;42.636;23.294;2023-03-20T05:35:17;160029.28;;;5.54;100.00
42945;BME280;28584;42.636;23.294;2023-03-20T05:37:42;160109.19;;;5.84;100.00
42945;BME280;28584;42.636;23.294;2023-03-20T05:40:12;160246.28;;;6.36;100.00
42945;BME280;28584;42.636;23.294;2023-03-20T05:42:37;160364.84;;;6.80;100.00
42945;BME280;28584;42.636;23.294;2023-03-20T05:45:03;160495.41;;;7.29;100.00
42945;BME280;28584;42.636;23.294;2023-03-20T05:47:29;160463.38;;;7.17;92.47
42945;BME280;28584;42.636;23.294;2023-03-20T05:49:54;160507.41;;;7.34;95.10
42945;BME280;28584;42.636;23.294;2023-03-20T05:52:20;160487.41;;;7.26;94.76
42945;BME280;28584;42.636;23.294;2023-03-20T05:54:45;160539.34;;;7.46;90.18
42945;BME280;28584;42.636;23.294;2023-03-20T05:57:11;160559.38;;;7.53;87.58
42945;BME280;28584;42.636;23.294;2023-03-20T05:59:36;160600.69;;;7.69;85.49
42945;BME280;28584;42.636;23.294;2023-03-20T06:02:02;160672.69;;;7.96;84.27
42945;BME280;28584;42.636;23.294;2023-03-20T06:04:27;160694.00;;;8.04;82.65
42945;BME280;28584;42.636;23.294;2023-03-20T06:06:53;160798.06;;;8.43;78.41
42945;BME280;28584;42.636;23.294;2023-03-20T06:09:18;160854.06;;;8.64;74.77
42945;BME280;28584;42.636;23.294;2023-03-20T06:11:43;160928.78;;;8.92;70.73
42945;BME280;28584;42.636;23.294;2023-03-20T06:14:09;160992.81;;;9.16;67.76
42945;BME280;28584;42.636;23.294;2023-03-20T06:16:34;160894.13;;;8.79;67.24
42945;BME280;28584;42.636;23.294;2023-03-20T06:19:00;160904.78;;;8.83;69.14
42945;BME280;28584;42.636;23.294;2023-03-20T06:21:25;160992.81;;;9.16;68.44
42945;BME280;28584;42.636;23.294;2023-03-20T06:23:50;161096.97;;;9.55;66.96
42945;BME280;28584;42.636;23.294;2023-03-20T06:26:16;161026.19;;;9.29;67.55
42945;BME280;28584;42.636;23.294;2023-03-20T06:28:41;161028.88;;;9.30;70.83
42945;BME280;28584;42.636;23.294;2023-03-20T06:31:06;161090.25;;;9.53;73.08
42945;BME280;28584;42.636;23.294;2023-03-20T06:33:34;161281.28;;;10.24;70.93
42945;BME280;28584;42.636;23.294;2023-03-20T06:35:59;161401.50;;;10.69;67.66
42945;BME280;28584;42.636;23.294;2023-03-20T06:38:25;161513.75;;;11.11;64.91
42945;BME280;28584;42.636;23.294;2023-03-20T06:40:50;161527.09;;;11.16;63.33
42945;BME280;28584;42.636;23.294;2023-03-20T06:43:15;161413.50;;;10.74;64.14
42945;BME280;28584;42.636;23.294;2023-03-20T06:45:41;161362.75;;;10.55;64.21
42945;BME280;28584;42.636;23.294;2023-03-20T06:48:07;161372.06;;;10.58;63.27
42945;BME280;28584;42.636;23.294;2023-03-20T06:50:32;161485.66;;;11.01;62.31
42945;BME280;28584;42.636;23.294;2023-03-20T06:52:58;161692.91;;;11.79;60.17
42945;BME280;28584;42.636;23.294;2023-03-20T06:55:23;161846.72;;;12.36;57.32
42945;BME280;28584;42.636;23.294;2023-03-20T06:57:49;161955.09;;;12.77;55.74
42945;BME280;28584;42.636;23.294;2023-03-20T07:00:14;161842.72;;;12.35;54.82
42945;BME280;28584;42.636;23.294;2023-03-20T07:02:40;161944.41;;;12.73;54.52
42945;BME280;28584;42.636;23.294;2023-03-20T07:05:05;162126.50;;;13.41;54.44
42945;BME280;28584;42.636;23.294;2023-03-20T07:07:34;162046.16;;;13.11;53.30
42945;BME280;28584;42.636;23.294;2023-03-20T07:09:59;162097.06;;;13.30;53.75
42945;BME280;28584;42.636;23.294;2023-03-20T07:12:25;162222.91;;;13.77;52.24
42945;BME280;28584;42.636;23.294;2023-03-20T07:14:53;161604.66;;;11.46;53.87
42945;BME280;28584;42.636;23.294;2023-03-20T07:17:18;161643.38;;;11.60;56.45
42945;BME280;28584;42.636;23.294;2023-03-20T07:19:43;161908.28;;;12.59;55.37
42945;BME280;28584;42.636;23.294;2023-03-20T07:22:17;161933.69;;;12.69;54.65
42945;BME280;28584;42.636;23.294;2023-03-20T07:24:44;162118.47;;;13.38;53.17
42945;BME280;28584;42.636;23.294;2023-03-20T07:27:09;162255.06;;;13.89;51.81
42945;BME280;28584;42.636;23.294;2023-03-20T07:29:35;162293.88;;;14.04;51.24
42945;BME280;28584;42.636;23.294;2023-03-20T07:32:01;162335.41;;;14.19;50.48
42945;BME280;28584;42.636;23.294;2023-03-20T07:34:27;162303.28;;;14.07;51.01
42945;BME280;28584;42.636;23.294;2023-03-20T07:36:52;162293.88;;;14.04;50.34
42945;BME280;28584;42.636;23.294;2023-03-20T07:39:18;161928.38;;;12.67;52.51
42945;BME280;28584;42.636;23.294;2023-03-20T07:41:43;161834.69;;;12.32;53.63
42945;BME280;28584;42.636;23.294;2023-03-20T07:44:08;162035.47;;;13.07;53.44
42945;BME280;28584;42.636;23.294;2023-03-20T07:46:34;162249.69;;;13.87;51.92
42945;BME280;28584;42.636;23.294;2023-03-20T07:49:00;161952.44;;;12.76;51.42
42945;BME280;28584;42.636;23.294;2023-03-20T07:51:25;161977.84;;;12.85;52.55
42945;BME280;28584;42.636;23.294;2023-03-20T07:53:51;161690.28;;;11.78;55.02
42945;BME280;28584;42.636;23.294;2023-03-20T07:56:16;161905.63;;;12.58;55.10
42945;BME280;28584;42.636;23.294;2023-03-20T07:58:42;162145.25;;;13.48;53.09
42945;BME280;28584;42.636;23.294;2023-03-20T08:01:07;162134.53;;;13.44;51.30
42945;BME280;28584;42.636;23.294;2023-03-20T08:03:32;162261.75;;;13.92;50.42
42945;BME280;28584;42.636;23.294;2023-03-20T08:05:58;162174.69;;;13.59;51.00
42945;BME280;28584;42.636;23.294;2023-03-20T08:08:23;162158.63;;;13.53;51.73
42945;BME280;28584;42.636;23.294;2023-03-20T08:10:49;161775.84;;;12.10;53.30
42945;BME280;28584;42.636;23.294;2023-03-20T08:13:14;162109.13;;;13.34;52.39
42945;BME280;28584;42.636;23.294;2023-03-20T08:15:40;162247.03;;;13.86;51.25
42945;BME280;28584;42.636;23.294;2023-03-20T08:18:05;162509.66;;;14.84;48.70
42945;BME280;28584;42.636;23.294;2023-03-20T08:20:31;162347.50;;;14.24;48.72
42945;BME280;28584;42.636;23.294;2023-03-20T08:22:56;162391.75;;;14.40;48.54
42945;BME280;28584;42.636;23.294;2023-03-20T08:25:22;162592.75;;;15.15;47.66
42945;BME280;28584;42.636;23.294;2023-03-20T08:27:47;162586.06;;;15.13;46.45
42945;BME280;28584;42.636;23.294;2023-03-20T08:30:14;162214.84;;;13.74;49.25
42945;BME280;28584;42.636;23.294;2023-03-20T08:32:39;162502.97;;;14.82;48.29
42945;BME280;28584;42.636;23.294;2023-03-20T08:35:06;162659.84;;;15.40;47.04
42945;BME280;28584;42.636;23.294;2023-03-20T08:37:33;162812.75;;;15.97;46.09
42945;BME280;28584;42.636;23.294;2023-03-20T08:39:58;162763.09;;;15.79;46.62
42945;BME280;28584;42.636;23.294;2023-03-20T08:42:23;162858.34;;;16.14;46.22
42945;BME280;28584;42.636;23.294;2023-03-20T08:44:49;162631.66;;;15.30;46.18
42945;BME280;28584;42.636;23.294;2023-03-20T08:47:14;162375.66;;;14.34;48.16
42945;BME280;28584;42.636;23.294;2023-03-20T08:49:40;162641.00;;;15.33;48.05
42945;BME280;28584;42.636;23.294;2023-03-20T08:52:05;162641.00;;;15.33;46.38
42945;BME280;28584;42.636;23.294;2023-03-20T08:54:31;162937.56;;;16.44;45.27
42945;BME280;28584;42.636;23.294;2023-03-20T08:56:57;163078.50;;;16.97;44.01
42945;BME280;28584;42.636;23.294;2023-03-20T08:59:23;163137.53;;;17.19;42.97
42945;BME280;28584;42.636;23.294;2023-03-20T09:01:49;163183.19;;;17.36;42.70
42945;BME280;28584;42.636;23.294;2023-03-20T09:04:14;163257.09;;;17.63;42.50
42945;BME280;28584;42.636;23.294;2023-03-20T09:06:40;163253.03;;;17.62;42.51
42945;BME280;28584;42.636;23.294;2023-03-20T09:09:05;162835.53;;;16.06;43.21
42945;BME280;28584;42.636;23.294;2023-03-20T09:11:31;162637.00;;;15.32;45.40
42945;BME280;28584;42.636;23.294;2023-03-20T09:13:57;162745.69;;;15.72;45.33
42945;BME280;28584;42.636;23.294;2023-03-20T09:16:24;162832.88;;;16.05;44.96
42945;BME280;28584;42.636;23.294;2023-03-20T09:18:49;162946.94;;;16.48;44.43
42945;BME280;28584;42.636;23.294;2023-03-20T09:21:14;162718.88;;;15.62;45.43
42945;BME280;28584;42.636;23.294;2023-03-20T09:23:40;162777.84;;;15.84;46.15
42945;BME280;28584;42.636;23.294;2023-03-20T09:26:05;162852.97;;;16.12;45.67
42945;BME280;28584;42.636;23.294;2023-03-20T09:28:31;162647.81;;;15.36;46.26
42945;BME280;28584;42.636;23.294;2023-03-20T09:30:57;162772.53;;;15.82;46.62
42945;BME280;28584;42.636;23.294;2023-03-20T09:33:23;162847.63;;;16.10;45.42
42945;BME280;28584;42.636;23.294;2023-03-20T09:35:49;162732.25;;;15.67;46.10
42945;BME280;28584;42.636;23.294;2023-03-20T09:38:15;162804.69;;;15.94;45.98
42945;BME280;28584;42.636;23.294;2023-03-20T09:43:35;162953.69;;;16.50;44.62
42945;BME280;28584;42.636;23.294;2023-03-20T09:46:16;163095.94;;;17.03;43.83
42945;BME280;28584;42.636;23.294;2023-03-20T09:51:55;163012.72;;;16.72;43.47
42945;BME280;28584;42.636;23.294;2023-03-20T09:54:40;163110.69;;;17.09;43.79
42945;BME280;28584;42.636;23.294;2023-03-20T09:57:16;163274.56;;;17.70;42.58
42945;BME280;28584;42.636;23.294;2023-03-20T09:59:43;163133.50;;;17.17;42.80
42945;BME280;28584;42.636;23.294;2023-03-20T10:02:24;163355.13;;;18.00;42.65
42945;BME280;28584;42.636;23.294;2023-03-20T10:04:54;163386.03;;;18.11;41.99
42945;BME280;28584;42.636;23.294;2023-03-20T10:07:20;163258.44;;;17.64;42.21
42945;BME280;28584;42.636;23.294;2023-03-20T10:09:46;163316.19;;;17.85;42.05
42945;BME280;28584;42.636;23.294;2023-03-20T10:12:55;163083.84;;;16.99;42.38
42945;BME280;28584;42.636;23.294;2023-03-20T10:15:26;163075.78;;;16.96;44.26
42945;BME280;28584;42.636;23.294;2023-03-20T10:20:35;163204.72;;;17.44;43.84
42945;BME280;28584;42.636;23.294;2023-03-20T10:26:05;163124.09;;;17.14;42.97
42945;BME280;28584;42.636;23.294;2023-03-20T10:31:27;162828.84;;;16.03;45.04
42945;BME280;28584;42.636;23.294;2023-03-20T10:41:52;162848.94;;;16.11;45.32
42945;BME280;28584;42.636;23.294;2023-03-20T10:44:29;162861.03;;;16.15;45.41
42945;BME280;28584;42.636;23.294;2023-03-20T10:47:00;162852.97;;;16.12;45.14
42945;BME280;28584;42.636;23.294;2023-03-20T10:49:40;162852.97;;;16.12;46.09
42945;BME280;28584;42.636;23.294;2023-03-20T10:52:13;162850.31;;;16.11;45.52
42945;BME280;28584;42.636;23.294;2023-03-20T10:54:43;162818.06;;;15.99;45.72
42945;BME280;28584;42.636;23.294;2023-03-20T10:57:19;162887.84;;;16.25;45.81
42945;BME280;28584;42.636;23.294;2023-03-20T10:59:49;162909.31;;;16.33;45.12
42945;BME280;28584;42.636;23.294;2023-03-20T11:02:16;162857.00;;;16.14;45.34
42945;BME280;28584;42.636;23.294;2023-03-20T11:04:43;162902.59;;;16.31;45.27
42945;BME280;28584;42.636;23.294;2023-03-20T11:07:33;162879.81;;;16.22;45.09
42945;BME280;28584;42.636;23.294;2023-03-20T11:12:31;162820.78;;;16.00;45.59
42945;BME280;28584;42.636;23.294;2023-03-20T11:14:59;162877.13;;;16.21;45.19
42945;BME280;28584;42.636;23.294;2023-03-20T11:17:28;162949.66;;;16.49;44.78
42945;BME280;28584;42.636;23.294;2023-03-20T11:19:53;162938.88;;;16.44;44.20
42945;BME280;28584;42.636;23.294;2023-03-20T11:22:27;162960.38;;;16.53;44.24
42945;BME280;28584;42.636;23.294;2023-03-20T11:24:55;162972.47;;;16.57;44.02
42945;BME280;28584;42.636;23.294;2023-03-20T11:27:31;163043.59;;;16.84;44.07
42945;BME280;28584;42.636;23.294;2023-03-20T11:30:03;163073.09;;;16.95;43.84
42945;BME280;28584;42.636;23.294;2023-03-20T11:32:32;163081.16;;;16.98;43.53
42945;BME280;28584;42.636;23.294;2023-03-20T11:37:53;163035.53;;;16.81;43.38
42945;BME280;28584;42.636;23.294;2023-03-20T11:40:31;163003.28;;;16.69;43.80
42945;BME280;28584;42.636;23.294;2023-03-20T11:45:22;162992.56;;;16.65;43.32
42945;BME280;28584;42.636;23.294;2023-03-20T11:47:53;162944.25;;;16.47;43.09
42945;BME280;28584;42.636;23.294;2023-03-20T11:50:31;163022.06;;;16.76;42.47
42945;BME280;28584;42.636;23.294;2023-03-20T11:52:57;163059.69;;;16.90;42.53
42945;BME280;28584;42.636;23.294;2023-03-20T11:55:30;163116.06;;;17.11;41.29
42945;BME280;28584;42.636;23.294;2023-03-20T11:58:03;162995.28;;;16.66;41.64
42945;BME280;28584;42.636;23.294;2023-03-20T12:00:37;162940.22;;;16.45;41.39
42945;BME280;28584;42.636;23.294;2023-03-20T12:03:31;162995.28;;;16.66;42.05
42945;BME280;28584;42.636;23.294;2023-03-20T12:06:00;162987.22;;;16.63;41.64
42945;BME280;28584;42.636;23.294;2023-03-20T12:08:27;163019.41;;;16.75;41.13
42945;BME280;28584;42.636;23.294;2023-03-20T12:11:05;163085.19;;;16.99;41.23
42945;BME280;28584;42.636;23.294;2023-03-20T12:13:34;163136.19;;;17.18;41.26
42945;BME280;28584;42.636;23.294;2023-03-20T12:16:05;163177.81;;;17.34;40.81
42945;BME280;28584;42.636;23.294;2023-03-20T12:18:41;163202.03;;;17.43;40.08
42945;BME280;28584;42.636;23.294;2023-03-20T12:21:19;163212.78;;;17.47;40.27
42945;BME280;28584;42.636;23.294;2023-03-20T12:23:52;163059.69;;;16.90;40.48
42945;BME280;28584;42.636;23.294;2023-03-20T12:31:45;163203.34;;;17.43;39.41
42945;BME280;28584;42.636;23.294;2023-03-20T12:34:33;163282.59;;;17.73;39.22
42945;BME280;28584;42.636;23.294;2023-03-20T12:37:01;163324.22;;;17.88;38.84
42945;BME280;28584;42.636;23.294;2023-03-20T12:39:36;163316.19;;;17.85;38.58
42945;BME280;28584;42.636;23.294;2023-03-20T12:45:18;163243.66;;;17.58;38.63
42945;BME280;28584;42.636;23.294;2023-03-20T12:49:07;163243.66;;;17.58;38.37
42945;BME280;28584;42.636;23.294;2023-03-20T12:51:06;163328.25;;;17.90;38.52
42945;BME280;28584;42.636;23.294;2023-03-20T12:56:30;163450.56;;;18.35;37.67
42945;BME280;28584;42.636;23.294;2023-03-20T12:59:59;163433.06;;;18.29;36.89
42945;BME280;28584;42.636;23.294;2023-03-20T13:02:23;163504.34;;;18.55;36.77
42945;BME280;28584;42.636;23.294;2023-03-20T13:10:39;163550.03;;;18.72;36.25
42945;BME280;28584;42.636;23.294;2023-03-20T13:13:16;163572.88;;;18.81;36.28
42945;BME280;28584;42.636;23.294;2023-03-20T13:16:01;163556.75;;;18.75;35.36
42945;BME280;28584;42.636;23.294;2023-03-20T13:21:42;163523.13;;;18.62;35.64
42945;BME280;28584;42.636;23.294;2023-03-20T13:24:19;163552.69;;;18.73;35.91
42945;BME280;28584;42.636;23.294;2023-03-20T13:26:57;163578.22;;;18.83;35.17
42945;BME280;28584;42.636;23.294;2023-03-20T13:37:57;163658.91;;;19.13;35.66
42945;BME280;28584;42.636;23.294;2023-03-20T13:40:26;163505.66;;;18.56;34.87
42945;BME280;28584;42.636;23.294;2023-03-20T13:42:53;163642.75;;;19.07;34.91
42945;BME280;28584;42.636;23.294;2023-03-20T13:45:38;163661.56;;;19.14;34.25
42945;BME280;28584;42.636;23.294;2023-03-20T13:59:29;163941.38;;;20.18;33.84
42945;BME280;28584;42.636;23.294;2023-03-20T14:05:22;164135.16;;;20.90;33.59
42945;BME280;28584;42.636;23.294;2023-03-20T14:07:54;164094.81;;;20.75;32.46
42945;BME280;28584;42.636;23.294;2023-03-20T14:12:58;164156.75;;;20.98;32.33
42945;BME280;28584;42.636;23.294;2023-03-20T14:15:34;164186.41;;;21.09;32.15
42945;BME280;28584;42.636;23.294;2023-03-20T14:18:06;164167.56;;;21.02;32.07
42945;BME280;28584;42.636;23.294;2023-03-20T14:20:39;164199.84;;;21.14;30.87
42945;BME280;28584;42.636;23.294;2023-03-20T14:23:06;164178.31;;;21.06;30.87
42945;BME280;28584;42.636;23.294;2023-03-20T14:25:40;164178.31;;;21.06;31.09
42945;BME280;28584;42.636;23.294;2023-03-20T14:30:44;164156.75;;;20.98;32.07
42945;BME280;28584;42.636;23.294;2023-03-20T14:35:38;164120.38;;;20.85;32.57
42945;BME280;28584;42.636;23.294;2023-03-20T14:38:34;164036.94;;;20.54;32.25
42945;BME280;28584;42.636;23.294;2023-03-20T14:41:27;164043.66;;;20.56;33.04
42945;BME280;28584;42.636;23.294;2023-03-20T14:44:01;164067.88;;;20.65;33.01
42945;BME280;28584;42.636;23.294;2023-03-20T14:52:28;163981.78;;;20.33;33.82
42945;BME280;28584;42.636;23.294;2023-03-20T14:54:54;163875.47;;;19.94;34.64
42945;BME280;28584;42.636;23.294;2023-03-20T14:57:32;163823.00;;;19.74;35.83